createdAt,value
2019-04-28T00:01:28.564Z,99884.00
2019-04-28T00:06:46.068Z,99892.00
2019-04-28T00:09:35.980Z,99893.00
2019-04-28T00:12:25.595Z,99886.00
2019-04-28T00:15:14.893Z,99892.00
2019-04-28T00:18:04.284Z,99880.00
2019-04-28T00:21:03.407Z,99891.00
2019-04-28T00:23:54.730Z,99876.00
2019-04-28T00:26:52.348Z,99863.00
2019-04-28T00:29:46.051Z,99861.00
2019-04-28T00:32:32.923Z,99864.00
2019-04-28T00:35:23.251Z,99872.00
2019-04-28T00:38:13.088Z,99862.00
2019-04-28T00:41:02.457Z,99862.00
2019-04-28T00:43:51.997Z,99870.00
2019-04-28T00:46:43.836Z,99877.00
2019-04-28T00:49:53.249Z,99880.00
2019-04-28T00:52:42.469Z,99883.00
2019-04-28T00:55:32.059Z,99882.00
2019-04-28T00:58:20.960Z,99885.00
2019-04-28T01:01:14.389Z,99895.00
2019-04-28T01:04:03.807Z,99876.00
2019-04-28T01:06:52.423Z,99887.00
2019-04-28T01:09:41.664Z,99888.00
2019-04-28T01:12:31.286Z,99897.00
2019-04-28T01:20:17.163Z,99916.00
2019-04-28T01:23:06.882Z,99929.00
2019-04-28T01:25:56.390Z,99944.00
2019-04-28T01:28:45.622Z,99944.00
2019-04-28T01:31:45.387Z,99948.00
2019-04-28T01:34:35.329Z,99955.00
2019-04-28T01:37:24.322Z,99943.00
2019-04-28T01:40:13.974Z,99940.00
2019-04-28T01:43:03.068Z,99939.00
2019-04-28T01:45:52.549Z,99941.00
2019-04-28T01:48:41.993Z,99931.00
2019-04-28T01:53:57.150Z,99922.00
2019-04-28T01:56:46.528Z,99934.00
2019-04-28T01:59:35.407Z,99936.00
2019-04-28T02:02:24.559Z,99934.00
2019-04-28T02:05:14.001Z,99934.00
2019-04-28T02:08:03.313Z,99935.00
2019-04-28T02:10:52.797Z,99942.00
2019-04-28T02:13:42.436Z,99940.00
2019-04-28T02:16:31.694Z,99943.00
2019-04-28T02:19:20.509Z,99940.00
2019-04-28T02:22:27.734Z,99942.00
2019-04-28T02:25:19.689Z,99938.00
2019-04-28T02:28:11.726Z,99946.00
2019-04-28T02:31:02.311Z,99938.00
2019-04-28T02:36:17.296Z,99928.00
2019-04-28T02:39:06.055Z,99938.00
2019-04-28T02:41:55.612Z,99935.00
2019-04-28T02:44:23.632Z,99926.00
2019-04-28T02:49:40.917Z,99924.00
2019-04-28T02:52:35.465Z,99920.00
2019-04-28T02:55:24.866Z,99923.00
2019-04-28T02:58:13.861Z,99920.00
2019-04-28T03:01:13.006Z,99923.00
2019-04-28T03:03:54.854Z,99917.00
2019-04-28T03:06:44.484Z,99915.00
2019-04-28T03:09:34.331Z,99905.00
2019-04-28T03:12:24.051Z,99903.00
2019-04-28T03:15:13.599Z,99902.00
2019-04-28T03:18:02.588Z,99894.00
2019-04-28T03:20:52.617Z,99889.00
2019-04-28T03:23:41.316Z,99893.00
2019-04-28T03:34:05.540Z,99886.00
2019-04-28T03:36:55.648Z,99887.00
2019-04-28T03:39:44.939Z,99899.00
2019-04-28T03:45:02.437Z,99914.00
2019-04-28T03:47:52.149Z,99903.00
2019-04-28T03:50:41.697Z,99908.00
2019-04-28T03:53:31.545Z,99909.00
2019-04-28T03:56:34.059Z,99911.00
2019-04-28T03:59:23.634Z,99924.00
2019-04-28T04:02:13.288Z,99916.00
2019-04-28T04:05:03.990Z,99918.00
2019-04-28T04:07:53.993Z,99926.00
2019-04-28T04:10:54.061Z,99924.00
2019-04-28T04:13:53.219Z,99923.00
2019-04-28T04:16:55.692Z,99922.00
2019-04-28T04:19:40.877Z,99924.00
2019-04-28T04:22:17.271Z,99927.00
2019-04-28T04:25:01.327Z,99931.00
2019-04-28T04:27:37.205Z,99931.00
2019-04-28T04:30:20.778Z,99921.00
2019-04-28T04:33:02.676Z,99920.00
2019-04-28T04:35:52.013Z,99907.00
2019-04-28T04:38:46.097Z,99909.00
2019-04-28T04:41:26.601Z,99906.00
2019-04-28T04:44:02.998Z,99918.00
2019-04-28T04:46:52.054Z,99922.00
2019-04-28T04:49:41.325Z,99916.00
2019-04-28T04:52:31.268Z,99924.00
2019-04-28T04:55:21.267Z,99927.00
2019-04-28T04:58:04.357Z,99930.00
2019-04-28T05:00:57.557Z,99934.00
2019-04-28T05:03:49.775Z,99936.00
2019-04-28T05:06:41.518Z,99936.00
2019-04-28T05:09:19.618Z,99939.00
2019-04-28T05:12:02.963Z,99939.00
2019-04-28T05:14:39.583Z,99945.00
2019-04-28T05:17:22.547Z,99938.00
2019-04-28T05:19:59.504Z,99949.00
2019-04-28T05:22:45.204Z,99953.00
2019-04-28T05:25:24.512Z,99960.00
2019-04-28T05:31:02.340Z,99967.00
2019-04-28T05:33:52.055Z,99969.00
2019-04-28T05:36:44.514Z,99970.00
2019-04-28T05:39:32.871Z,99976.00
2019-04-28T05:44:49.650Z,99981.00
2019-04-28T05:47:38.474Z,99974.00
2019-04-28T05:50:05.514Z,99987.00
2019-04-28T05:53:10.315Z,99977.00
2019-04-28T05:58:30.066Z,99997.00
2019-04-28T06:01:30.463Z,99992.00
2019-04-28T06:04:19.934Z,99994.00
2019-04-28T06:07:10.955Z,99988.00
2019-04-28T06:12:27.635Z,100006.00
2019-04-28T06:15:17.219Z,100009.00
2019-04-28T06:18:06.009Z,100017.00
2019-04-28T06:23:21.166Z,100018.00
2019-04-28T06:26:10.554Z,100025.00
2019-04-28T06:29:00.410Z,100034.00
2019-04-28T06:31:49.341Z,100020.00
2019-04-28T06:34:38.645Z,100031.00
2019-04-28T06:37:27.261Z,100029.00
2019-04-28T06:40:19.513Z,100037.00
2019-04-28T06:43:08.902Z,100040.00
2019-04-28T06:45:58.120Z,100040.00
2019-04-28T06:48:46.913Z,100050.00
2019-04-28T06:51:36.349Z,100043.00
2019-04-28T06:54:26.184Z,100046.00
2019-04-28T06:59:42.063Z,100067.00
2019-04-28T07:02:31.698Z,100054.00
2019-04-28T07:05:21.956Z,100056.00
2019-04-28T07:08:10.321Z,100061.00
2019-04-28T07:10:59.825Z,100059.00
2019-04-28T07:13:49.545Z,100050.00
2019-04-28T07:21:51.260Z,100061.00
2019-04-28T07:24:39.926Z,100064.00
2019-04-28T07:29:55.552Z,100077.00
2019-04-28T07:32:45.535Z,100076.00
2019-04-28T07:35:34.928Z,100092.00
2019-04-28T07:40:50.281Z,100088.00
2019-04-28T07:43:39.776Z,100092.00
2019-04-28T07:46:29.225Z,100085.00
2019-04-28T07:49:18.666Z,100102.00
2019-04-28T07:52:09.492Z,100099.00
2019-04-28T07:54:58.879Z,100110.00
2019-04-28T07:57:48.254Z,100111.00
2019-04-28T08:00:38.893Z,100103.00
2019-04-28T08:03:27.755Z,100098.00
2019-04-28T08:11:09.544Z,100111.00
2019-04-28T08:13:59.360Z,100122.00
2019-04-28T08:16:48.648Z,100123.00
2019-04-28T08:19:38.017Z,100125.00
2019-04-28T08:22:27.235Z,100125.00
2019-04-28T08:25:18.570Z,100125.00
2019-04-28T08:30:34.230Z,100131.00
2019-04-28T08:33:29.427Z,100124.00
2019-04-28T08:36:19.247Z,99859.00
2019-04-28T08:39:00.689Z,100125.00
2019-04-28T08:41:50.524Z,100134.00
2019-04-28T08:44:39.964Z,100142.00
2019-04-28T08:47:29.162Z,100136.00
2019-04-28T08:50:20.810Z,100129.00
2019-04-28T08:53:10.200Z,100138.00
2019-04-28T08:58:25.979Z,100141.00
2019-04-28T09:01:15.969Z,100142.00
2019-04-28T09:04:15.129Z,100134.00
2019-04-28T09:11:49.010Z,100152.00
2019-04-28T09:14:37.880Z,100143.00
2019-04-28T09:17:27.595Z,100139.00
2019-04-28T09:20:18.090Z,100150.00
2019-04-28T09:23:07.923Z,100149.00
2019-04-28T09:25:56.919Z,100152.00
2019-04-28T09:28:46.207Z,100150.00
2019-04-28T09:31:35.424Z,100144.00
2019-04-28T09:34:28.364Z,100144.00
2019-04-28T09:37:16.241Z,100152.00
2019-04-28T09:40:07.489Z,100153.00
2019-04-28T09:46:07.251Z,100161.00
2019-04-28T09:48:50.000Z,100166.00
2019-04-28T09:51:32.402Z,100163.00
2019-04-28T09:54:21.672Z,100156.00
2019-04-28T09:56:57.428Z,100155.00
2019-04-28T09:59:40.026Z,100152.00
2019-04-28T10:02:29.132Z,100155.00
2019-04-28T10:05:16.037Z,100161.00
2019-04-28T10:07:52.528Z,100167.00
2019-04-28T10:10:34.394Z,100158.00
2019-04-28T10:13:10.977Z,100170.00
2019-04-28T10:15:54.431Z,100161.00
2019-04-28T10:18:37.473Z,100163.00
2019-04-28T10:21:22.328Z,100163.00
2019-04-28T10:24:04.658Z,100166.00
2019-04-28T10:26:54.589Z,100173.00
2019-04-28T10:29:36.667Z,100164.00
2019-04-28T10:32:19.672Z,100169.00
2019-04-28T10:35:02.917Z,100175.00
2019-04-28T10:37:38.654Z,100174.00
2019-04-28T10:40:33.252Z,100177.00
2019-04-28T10:43:09.126Z,100195.00
2019-04-28T10:45:56.246Z,100194.00
2019-04-28T10:48:39.733Z,100197.00
2019-04-28T10:51:23.430Z,100193.00
2019-04-28T10:53:59.227Z,100194.00
2019-04-28T10:56:42.175Z,100198.00
2019-04-28T10:59:18.006Z,100200.00
2019-04-28T11:02:00.840Z,100210.00
2019-04-28T11:04:41.369Z,100214.00
2019-04-28T11:07:25.892Z,100218.00
2019-04-28T11:10:03.630Z,100219.00
2019-04-28T11:12:45.999Z,100212.00
2019-04-28T11:15:34.958Z,100209.00
2019-04-28T11:18:19.905Z,100208.00
2019-04-28T11:20:56.079Z,100198.00
2019-04-28T11:23:38.267Z,100192.00
2019-04-28T11:26:20.468Z,100194.00
2019-04-28T11:29:12.207Z,100199.00
2019-04-28T11:31:47.982Z,100202.00
2019-04-28T11:34:50.009Z,100195.00
2019-04-28T11:37:32.357Z,100201.00
2019-04-28T11:40:14.386Z,100209.00
2019-04-28T11:43:11.610Z,100203.00
2019-04-28T11:46:01.160Z,100201.00
2019-04-28T11:48:43.441Z,100202.00
2019-04-28T11:51:19.692Z,100192.00
2019-04-28T11:54:02.205Z,100202.00
2019-04-28T11:56:41.477Z,100201.00
2019-04-28T11:59:22.020Z,100191.00
2019-04-28T12:01:58.065Z,100197.00
2019-04-28T12:04:40.942Z,100193.00
2019-04-28T12:07:16.784Z,100199.00
2019-04-28T12:10:04.853Z,100192.00
2019-04-28T12:12:40.645Z,100191.00
2019-04-28T12:15:42.020Z,100195.00
2019-04-28T12:18:26.351Z,100203.00
2019-04-28T12:21:08.900Z,100201.00
2019-04-28T12:23:52.147Z,100205.00
2019-04-28T12:26:34.519Z,100204.00
2019-04-28T12:29:10.590Z,100195.00
2019-04-28T12:31:53.490Z,100196.00
2019-04-28T12:34:36.136Z,100193.00
2019-04-28T12:37:18.855Z,100202.00
2019-04-28T12:39:55.623Z,100205.00
2019-04-28T12:42:37.971Z,100210.00
2019-04-28T12:45:34.519Z,100231.00
2019-04-28T12:48:06.355Z,100222.00
2019-04-28T12:50:44.326Z,100222.00
2019-04-28T12:53:27.246Z,100217.00
2019-04-28T12:56:03.761Z,100214.00
2019-04-28T12:58:46.483Z,100202.00
2019-04-28T13:01:49.826Z,100205.00
2019-04-28T13:04:37.203Z,100201.00
2019-04-28T13:07:12.976Z,100213.00
2019-04-28T13:09:55.597Z,100215.00
2019-04-28T13:12:31.844Z,100212.00
2019-04-28T13:15:15.286Z,100220.00
2019-04-28T13:17:58.029Z,100233.00
2019-04-28T13:20:40.260Z,100241.00
2019-04-28T13:23:23.140Z,100245.00
2019-04-28T13:26:05.926Z,100246.00
2019-04-28T13:28:41.655Z,100253.00
2019-04-28T13:31:23.642Z,100250.00
2019-04-28T13:34:01.456Z,100243.00
2019-04-28T13:36:43.695Z,100241.00
2019-04-28T13:39:24.716Z,100235.00
2019-04-28T13:42:06.751Z,100154.00
2019-04-28T13:44:56.719Z,100247.00
2019-04-28T13:47:38.606Z,100253.00
2019-04-28T13:50:28.335Z,100263.00
2019-04-28T13:53:17.560Z,100275.00
2019-04-28T13:55:54.981Z,100276.00
2019-04-28T13:58:38.827Z,100274.00
2019-04-28T14:01:05.880Z,100275.00
2019-04-28T14:06:31.947Z,100268.00
2019-04-28T14:11:47.558Z,100257.00
2019-04-28T14:14:36.928Z,100248.00
2019-04-28T14:17:26.450Z,100246.00
2019-04-28T14:20:15.791Z,100242.00
2019-04-28T14:23:05.555Z,100238.00
2019-04-28T14:25:54.497Z,100252.00
2019-04-28T14:28:44.204Z,100253.00
2019-04-28T14:31:34.145Z,100271.00
2019-04-28T14:34:23.730Z,100269.00
2019-04-28T14:37:12.538Z,100271.00
2019-04-28T14:40:01.931Z,100275.00
2019-04-28T14:42:51.100Z,100273.00
2019-04-28T14:48:06.720Z,100273.00
2019-04-28T14:50:56.155Z,100270.00
2019-04-28T14:53:45.731Z,100279.00
2019-04-28T14:56:35.054Z,100284.00
2019-04-28T14:59:24.596Z,100282.00
2019-04-28T15:08:06.246Z,100284.00
2019-04-28T15:10:59.298Z,100279.00
2019-04-28T15:13:49.343Z,100278.00
2019-04-28T15:16:39.254Z,100282.00
2019-04-28T15:21:54.824Z,100277.00
2019-04-28T15:24:44.526Z,100273.00
2019-04-28T15:27:33.938Z,100276.00
2019-04-28T15:35:15.806Z,100273.00
2019-04-28T15:38:05.340Z,100276.00
2019-04-28T15:40:54.975Z,100270.00
2019-04-28T15:43:44.173Z,100264.00
2019-04-28T15:46:33.839Z,100261.00
2019-04-28T15:49:22.770Z,100268.00
2019-04-28T15:54:38.211Z,100261.00
2019-04-28T15:57:27.232Z,100255.00
2019-04-28T16:00:17.928Z,100252.00
2019-04-28T16:03:07.087Z,100259.00
2019-04-28T16:08:22.602Z,100259.00
2019-04-28T16:11:12.526Z,100263.00
2019-04-28T16:14:02.414Z,100259.00
2019-04-28T16:16:52.563Z,100260.00
2019-04-28T16:19:35.246Z,100265.00
2019-04-28T16:22:25.439Z,100270.00
2019-04-28T16:25:14.591Z,100280.00
2019-04-28T16:28:03.778Z,100275.00
2019-04-28T16:30:53.705Z,100266.00
2019-04-28T16:33:43.632Z,100272.00
2019-04-28T16:38:58.351Z,100278.00
2019-04-28T16:44:32.257Z,100287.00
2019-04-28T16:47:20.449Z,100283.00
2019-04-28T16:50:09.615Z,100288.00
2019-04-28T16:55:28.612Z,100293.00
2019-04-28T16:58:20.170Z,100290.00
2019-04-28T17:01:12.285Z,100286.00
2019-04-28T17:04:01.935Z,100269.00
2019-04-28T17:06:51.016Z,100278.00
2019-04-28T17:09:40.041Z,100270.00
2019-04-28T17:12:30.157Z,100261.00
2019-04-28T17:17:45.372Z,100260.00
2019-04-28T17:20:34.807Z,100258.00
2019-04-28T17:23:23.793Z,100263.00
2019-04-28T17:26:12.653Z,100261.00
2019-04-28T17:29:01.376Z,100257.00
2019-04-28T17:31:50.753Z,100266.00
2019-04-28T17:39:32.359Z,100266.00
2019-04-28T17:42:22.309Z,100271.00
2019-04-28T17:45:11.984Z,100275.00
2019-04-28T17:50:28.708Z,100275.00
2019-04-28T17:55:45.629Z,100276.00
2019-04-28T17:58:35.175Z,100290.00
2019-04-28T18:04:11.030Z,100293.00
2019-04-28T18:07:01.453Z,100299.00
2019-04-28T18:09:50.606Z,100301.00
2019-04-28T18:12:40.031Z,100297.00
2019-04-28T18:18:08.720Z,100309.00
2019-04-28T18:20:57.809Z,100313.00
2019-04-28T18:23:47.161Z,100313.00
2019-04-28T18:26:36.453Z,100320.00
2019-04-28T18:29:26.691Z,100325.00
2019-04-28T18:31:53.791Z,100324.00
2019-04-28T18:34:47.116Z,100332.00
2019-04-28T18:37:54.261Z,100336.00
2019-04-28T18:40:56.774Z,100331.00
2019-04-28T18:43:32.146Z,100326.00
2019-04-28T18:46:14.205Z,100326.00
2019-04-28T18:49:03.896Z,100332.00
2019-04-28T18:51:53.954Z,100326.00
2019-04-28T18:57:09.080Z,100335.00
2019-04-28T18:59:58.039Z,100344.00
2019-04-28T19:02:49.071Z,100340.00
2019-04-28T19:05:40.636Z,100342.00
2019-04-28T19:08:48.528Z,100339.00
2019-04-28T19:14:05.665Z,100347.00
2019-04-28T19:17:11.732Z,100350.00
2019-04-28T19:19:59.954Z,100352.00
2019-04-28T19:22:53.656Z,100354.00
2019-04-28T19:25:43.142Z,100354.00
2019-04-28T19:33:25.285Z,100359.00
2019-04-28T19:36:14.313Z,100358.00
2019-04-28T19:39:03.828Z,100356.00
2019-04-28T19:46:45.358Z,100277.00
2019-04-28T19:49:35.149Z,100363.00
2019-04-28T19:58:06.782Z,100361.00
2019-04-28T20:03:24.167Z,100357.00
2019-04-28T20:08:39.876Z,100359.00
2019-04-28T20:11:29.681Z,100367.00
2019-04-28T20:14:19.258Z,100364.00
2019-04-28T20:17:08.534Z,100368.00
2019-04-28T20:19:58.225Z,100362.00
2019-04-28T20:22:47.059Z,100360.00
2019-04-28T20:25:37.048Z,100356.00
2019-04-28T20:28:26.475Z,100360.00
2019-04-28T20:31:16.038Z,100354.00
2019-04-28T20:34:06.268Z,100355.00
2019-04-28T20:36:59.786Z,100356.00
2019-04-28T20:39:51.291Z,100347.00
2019-04-28T20:42:47.363Z,100348.00
2019-04-28T20:45:22.833Z,100352.00
2019-04-28T20:53:20.334Z,100355.00
2019-04-28T20:56:09.128Z,100370.00
2019-04-28T20:58:58.320Z,100374.00
2019-04-28T21:01:48.363Z,100372.00
2019-04-28T21:07:04.245Z,100387.00
2019-04-28T21:09:53.772Z,100375.00
2019-04-28T21:12:42.940Z,100371.00
2019-04-28T21:17:58.468Z,100369.00
2019-04-28T21:20:47.667Z,100372.00
2019-04-28T21:23:36.973Z,100366.00
2019-04-28T21:26:26.675Z,100374.00
2019-04-28T21:29:15.613Z,100369.00
2019-04-28T21:32:05.066Z,100369.00
2019-04-28T21:34:54.422Z,100375.00
2019-04-28T21:37:43.787Z,100373.00
2019-04-28T21:40:34.827Z,100374.00
2019-04-28T21:48:18.214Z,100360.00
2019-04-28T21:51:07.745Z,100363.00
2019-04-28T21:53:51.158Z,100359.00
2019-04-28T21:59:15.212Z,100375.00
2019-04-28T22:02:04.940Z,100372.00
2019-04-28T22:04:53.905Z,100363.00
2019-04-28T22:07:43.301Z,100370.00
2019-04-28T22:10:32.879Z,100375.00
2019-04-28T22:13:22.043Z,100375.00
2019-04-28T22:16:11.657Z,100370.00
2019-04-28T22:19:01.486Z,100371.00
2019-04-28T22:24:18.714Z,100378.00
2019-04-28T22:27:08.303Z,100378.00
2019-04-28T22:29:56.960Z,100374.00
2019-04-28T22:35:12.627Z,100365.00
2019-04-28T22:38:02.180Z,100365.00
2019-04-28T22:40:44.722Z,100360.00
2019-04-28T22:46:02.103Z,100353.00
2019-04-28T22:48:51.835Z,100349.00
2019-04-28T22:51:41.290Z,100356.00
2019-04-28T22:54:35.102Z,100346.00
2019-04-28T22:57:41.632Z,100342.00
2019-04-28T23:05:35.245Z,100341.00
2019-04-28T23:08:24.578Z,100338.00
2019-04-28T23:13:39.901Z,100337.00
2019-04-28T23:16:29.486Z,100335.00
2019-04-28T23:19:20.809Z,100339.00
2019-04-28T23:24:35.894Z,100334.00
2019-04-28T23:27:24.574Z,100330.00
2019-04-28T23:30:13.788Z,100333.00
2019-04-28T23:35:35.597Z,100332.00
2019-04-28T23:38:25.242Z,100325.00
2019-04-28T23:41:21.349Z,100332.00
2019-04-28T23:49:35.659Z,100336.00
2019-04-28T23:52:28.763Z,100336.00
2019-04-28T23:55:20.207Z,100336.00
2019-04-28T23:58:02.737Z,100336.00
